• Join FlightAware (Why Join?)
  • Login
  • US Flag 
04:41AM EDT


 

Airport Tracker/Info


-or-


 

Live Flight TrackerFlight Track Log ✈ SWA1668 ✈ 06-May-2013 ✈ KOAK - KSLC

Flight Track Log - Related Links

Times and Time Zones

All times are in EDT time to prevent confusion due to time zone crossing. See the SWA1668 flight status page for this flight to view local times or setup timezone preferences in your user account.

Time Position Orientation Groundspeed Altitude Reporting Facility
EDT Latitude Longitude Course Direction KTS MPH feet Rate Location/Type
10:05PM 37.7667 -122.3000 310° West 227 261 4,000  Level Northern Cal TRACON
10:06PM 37.7972 -122.2769 31° Northeast 227 261 4,600 2,760 Climbing Oakland Center
10:07PM 37.8522 -122.2142 42° Northeast 254 292 8,300 3,600 Climbing Oakland Center
10:08PM 37.9128 -122.1464 41° Northeast 284 327 12,000 4,200 Climbing Oakland Center
10:09PM 37.9931 -122.0639 39° Northeast 309 356 16,900 3,600 Climbing Oakland Center
10:10PM 38.2558 -121.7109 38° Northeast  Level FlightAware Approximate
10:10PM 38.0597 -121.9900 41° Northeast 317 365 19,400  Level Oakland Center
10:11PM 38.1022 -121.8806 64° Northeast 350 403 22,400 2,760 Climbing Oakland Center
10:12PM 38.1431 -121.7689 65° Northeast 349 402 25,100 2,700 Climbing Oakland Center
10:13PM 38.1858 -121.6528 65° Northeast 360 414 28,000 2,820 Climbing Oakland Center
10:14PM 38.2267 -121.5394 65° Northeast 355 409 30,800 2,220 Climbing Oakland Center
10:15PM 38.2700 -121.4236 64° Northeast 354 407 32,600 1,560 Climbing Oakland Center
10:16PM 38.3117 -121.3067 66° East 364 419 34,000 1,260 Climbing Oakland Center
10:17PM 38.3569 -121.1856 64° Northeast 381 438 35,200 1,080 Climbing Oakland Center
10:18PM 38.4017 -121.0600 66° East 392 451 36,300 840 Climbing Oakland Center
10:19PM 38.4483 -120.9303 65° Northeast 403 464 37,000 540 Climbing Oakland Center
10:20PM 38.5094 -120.7636 65° Northeast 435 501 37,500 720 Climbing Oakland Center
10:21PM 38.5597 -120.6194 66° East 446 513 38,500 960 Climbing Oakland Center
10:22PM 38.6119 -120.4711 66° East 456 525 39,500 900 Climbing Oakland Center
10:23PM 38.6639 -120.3236 66° East 456 525 40,400 720 Climbing Oakland Center
10:24PM 38.7150 -120.1756 66° East 458 527 41,000 240 Climbing Oakland Center
10:25PM 38.7703 -120.0272 64° Northeast 459 528 41,000  Level Oakland Center
10:26PM 38.8267 -119.8772 64° Northeast 462 532 41,000  Level Oakland Center
10:27PM 38.8814 -119.7181 66° East 457 526 41,000  Level Oakland Center
10:28PM 38.9333 -119.5689 66° East 457 526 41,000  Level Oakland Center
10:29PM 38.9806 -119.4169 68° East 462 532 41,000  Level Oakland Center
10:30PM 39.0308 -119.2686 66° East 456 525 41,000  Level Oakland Center
10:31PM 39.0814 -119.1189 66° East 456 525 41,000  Level Oakland Center
10:32PM 39.1322 -118.9689 66° East 458 527 41,000  Level Oakland Center
10:33PM 39.1819 -118.8206 67° East 456 525 41,000  Level Oakland Center
10:34PM 39.2369 -118.6486 68° East 460 529 41,000  Level Oakland Center
10:35PM 39.2875 -118.4975 67° East 460 529 41,000  Level Oakland Center
10:36PM 39.3394 -118.3517 65° Northeast 446 513 41,000  Level Oakland Center
10:37PM 39.3892 -118.1994 67° East 455 524 41,000  Level Oakland Center
10:38PM 39.4353 -118.0472 69° East 449 517 41,000  Level Oakland Center
10:39PM 39.4878 -117.8928 66° East 465 535 41,000  Level Oakland Center
10:40PM 39.5375 -117.7408 67° East 458 527 41,000  Level Oakland Center
10:41PM 39.5839 -117.5872 69° East 453 521 41,000  Level Oakland Center
10:42PM 39.6333 -117.4336 67° East 459 528 41,000  Level Oakland Center
10:43PM 39.6828 -117.2719 68° East 457 526 41,000  Level Salt Lake Center
10:44PM 39.7294 -117.1264 67° East 458 527 41,000  Level Salt Lake Center
10:45PM 39.7728 -116.9500 72° East 459 528 41,000  Level Salt Lake Center
10:47PM 39.8547 -116.6244 72° East 459 528 41,000  Level Salt Lake Center
10:48PM 39.8911 -116.4781 72° East 458 527 41,000  Level Oakland Center
10:49PM 39.9294 -116.3239 72° East 459 528 41,000  Level Salt Lake Center
10:50PM 39.9717 -116.1481 73° East 458 527 41,000  Level Salt Lake Center
10:51PM 40.0092 -115.9972 72° East 458 527 41,000  Level Salt Lake Center
10:52PM 40.0533 -115.8181 72° East 463 533 41,000  Level Salt Lake Center
10:53PM 40.0906 -115.6672 72° East 459 528 41,000  Level Salt Lake Center
10:55PM 40.1319 -115.4922 73° East 454 522 41,000  Level Salt Lake Center
10:56PM 40.1672 -115.3408 73° East 455 524 41,000  Level Salt Lake Center
10:57PM 40.2025 -115.1919 73° East 451 519 41,000  Level Salt Lake Center
10:58PM 40.2433 -115.0161 73° East 453 521 41,000  Level Salt Lake Center
10:59PM 40.2786 -114.8636 73° East 454 522 41,000  Level Salt Lake Center
11:00PM 40.3178 -114.6958 73° East 450 518 41,000  Level Salt Lake Center
11:01PM 40.3542 -114.5361 73° East 458 527 41,000 -540 Level Salt Lake Center
11:02PM 40.3908 -114.3781 73° East 456 525 39,900 -1,860 Descending Salt Lake Center
11:03PM 40.4261 -114.2217 73° East 450 518 37,300 -2,580 Descending Salt Lake Center
11:04PM 40.4606 -114.0667 74° East 444 511 34,700 -2,400 Descending Salt Lake Center
11:05PM 40.4931 -113.9169 74° East 433 498 32,500 -2,100 Descending Salt Lake Center
11:06PM 40.5247 -113.7753 74° East 412 474 30,400 -2,220 Descending Salt Lake Center
11:07PM 40.5606 -113.6125 74° East 390 449 28,000 -2,160 Descending Salt Lake Center
11:08PM 40.5889 -113.4828 74° East 376 433 26,100 -1,860 Descending Salt Lake Center
11:09PM 40.6161 -113.3569 74° East 363 418 24,200 -1,860 Descending Salt Lake Center
11:10PM 40.6439 -113.2350 73° East 352 405 22,300 -1,800 Descending Salt Lake Center
11:11PM 40.6686 -113.1150 75° East 341 392 20,600 -1,740 Descending Salt Lake Center
11:12PM 40.6931 -112.9972 75° East 336 387 18,800 -1,740 Descending Salt Lake Center
11:13PM 40.7231 -112.8753 72° East 330 380 17,100 -900 Descending Salt Lake Center
11:14PM 40.7231 -112.7683 90° East 313 360 17,000 -60 Descending Salt Lake Center
11:15PM 40.7208 -112.6572 91° East 307 353 17,000 -600 Level Salt Lake Center
11:16PM 40.7197 -112.5219 91° East 308 354 15,800 -1,380 Descending Salt Lake Center
11:17PM 40.7164 -112.4111 92° East 305 351 14,200 -1,620 Descending Salt Lake Center
11:18PM 40.7128 -112.3011 92° East 301 346 12,600 -1,500 Descending Salt Lake Center
11:19PM 40.7136 -112.1939 89° East 296 341 11,200 -840 Descending Salt Lake Center
11:20PM 40.7517 -112.1103 59° Northeast 283 326 11,000 -600 Descending Salt Lake Center
11:21PM 40.8331 -112.1036 North 255 293 10,000 -900 Descending Salt Lake Center
11:22PM 40.8883 -112.1075 357° North 247 284 9,200 -540 Descending Salt Lake Center
11:23PM 40.9403 -112.0972 North 179 206 9,000 -960 Descending Salt Lake Center
11:24PM 40.9375 -112.0444 94° East 157 181 7,300 -1,620 Descending Salt Lake Center
11:25PM 40.9006 -112.0097 145° Southeast 139 160 5,800 -1,020 Descending Salt Lake Center
11:26PM 40.8639 -112.0061 176° South 131 151 5,300 -600 Descending Salt Lake Center
11:27PM 40.8278 -112.0008 174° South 130 150 4,600 -600 Descending Salt Lake Center
11:28PM 40.7958 -111.9975 175° South 120 138 4,200 -420 Descending Salt Lake Center
11:30PM 40.7884 -111.9778 159° South  Level Estimated